createdAt,value
2023-01-07T00:01:20.628Z,17.05
2023-01-07T00:03:23.588Z,18.30
2023-01-07T00:05:26.594Z,16.38
2023-01-07T00:07:31.231Z,15.77
2023-01-07T00:09:33.219Z,14.85
2023-01-07T00:11:37.623Z,14.82
2023-01-07T00:13:40.020Z,16.13
2023-01-07T00:15:42.922Z,15.65
2023-01-07T00:17:44.893Z,15.48
2023-01-07T00:19:47.896Z,15.18
2023-01-07T00:21:49.734Z,16.00
2023-01-07T00:23:56.383Z,17.23
2023-01-07T00:26:19.144Z,16.08
2023-01-07T00:28:21.059Z,17.73
2023-01-07T00:30:25.033Z,16.35
2023-01-07T00:32:47.347Z,19.88
2023-01-07T00:34:50.275Z,22.90
2023-01-07T00:37:12.132Z,20.70
2023-01-07T00:39:19.900Z,23.40
2023-01-07T00:41:22.013Z,23.42
2023-01-07T00:43:24.052Z,23.15
2023-01-07T00:45:26.081Z,25.15
2023-01-07T00:47:27.928Z,24.80
2023-01-07T00:49:32.473Z,24.52
2023-01-07T00:51:34.310Z,25.67
2023-01-07T00:53:36.211Z,23.58
2023-01-07T00:55:38.444Z,23.63
2023-01-07T00:57:40.464Z,26.25
2023-01-07T00:59:42.472Z,24.15
2023-01-07T01:01:44.442Z,25.38
2023-01-07T01:03:46.618Z,26.70
2023-01-07T01:05:50.016Z,24.23
2023-01-07T01:07:52.246Z,24.05
2023-01-07T01:09:54.233Z,26.98
2023-01-07T01:11:56.058Z,27.20
2023-01-07T01:13:57.857Z,27.08
2023-01-07T01:15:59.814Z,24.23
2023-01-07T01:18:01.740Z,31.80
2023-01-07T01:20:04.879Z,28.95
2023-01-07T01:22:06.787Z,31.20
2023-01-07T01:24:08.770Z,33.25
2023-01-07T01:26:14.088Z,37.45
2023-01-07T01:28:15.979Z,30.27
2023-01-07T01:30:17.926Z,30.75
2023-01-07T01:32:19.779Z,32.40
2023-01-07T01:34:21.762Z,29.50
2023-01-07T01:36:24.736Z,29.17
2023-01-07T01:38:26.605Z,30.10
2023-01-07T01:40:30.310Z,29.20
2023-01-07T01:42:32.767Z,26.67
2023-01-07T01:44:56.494Z,28.45
2023-01-07T01:46:58.889Z,25.27
2023-01-07T01:49:06.303Z,28.88
2023-01-07T01:51:10.649Z,28.13
2023-01-07T01:53:22.275Z,24.75
2023-01-07T01:57:33.001Z,25.77
2023-01-07T01:59:42.365Z,25.85
2023-01-07T02:01:44.323Z,22.88
2023-01-07T02:03:48.035Z,25.23
2023-01-07T02:05:50.329Z,24.10
2023-01-07T02:07:52.198Z,27.02
2023-01-07T02:10:19.064Z,25.33
2023-01-07T02:12:42.790Z,23.75
2023-01-07T02:14:44.590Z,22.42
2023-01-07T02:16:58.003Z,23.30
2023-01-07T02:19:27.289Z,24.88
2023-01-07T02:21:35.031Z,27.45
2023-01-07T02:24:28.685Z,25.52
2023-01-07T02:26:54.564Z,25.02
2023-01-07T02:29:10.240Z,28.13
2023-01-07T02:31:33.042Z,29.95
2023-01-07T02:33:51.247Z,33.00
2023-01-07T02:35:53.090Z,34.28
2023-01-07T02:38:04.713Z,36.90
2023-01-07T02:42:52.115Z,50.25
2023-01-07T02:45:12.887Z,34.10
2023-01-07T02:47:24.417Z,33.10
2023-01-07T02:49:26.320Z,51.00
2023-01-07T02:51:41.079Z,34.92
2023-01-07T02:53:45.867Z,35.50
2023-01-07T02:56:11.706Z,49.35
2023-01-07T02:58:41.328Z,45.97
2023-01-07T03:00:52.012Z,45.55
2023-01-07T03:03:22.573Z,54.53
2023-01-07T03:05:34.128Z,43.53
2023-01-07T03:08:32.146Z,38.13
2023-01-07T03:10:44.101Z,51.72
2023-01-07T03:13:00.276Z,60.08
2023-01-07T03:15:13.746Z,68.45
2023-01-07T03:17:43.009Z,61.92
2023-01-07T03:19:50.138Z,76.18
2023-01-07T03:21:54.608Z,49.10
2023-01-07T03:23:57.702Z,48.38
2023-01-07T03:26:05.230Z,45.08
2023-01-07T03:28:09.848Z,37.80
2023-01-07T03:30:15.276Z,32.17
2023-01-07T03:32:18.679Z,25.75
2023-01-07T03:34:25.456Z,25.15
2023-01-07T03:36:56.515Z,25.48
2023-01-07T03:39:00.132Z,23.83
2023-01-07T03:41:02.609Z,22.48
2023-01-07T03:43:04.633Z,22.73
2023-01-07T03:45:11.634Z,23.50
2023-01-07T03:47:13.592Z,23.98
2023-01-07T03:49:16.516Z,21.67
2023-01-07T03:51:18.461Z,22.45
2023-01-07T03:53:20.410Z,21.33
2023-01-07T03:55:22.305Z,21.08
2023-01-07T03:57:24.169Z,22.40
2023-01-07T03:59:25.984Z,22.40
2023-01-07T04:01:28.047Z,24.67
2023-01-07T04:03:30.008Z,25.15
2023-01-07T04:05:31.907Z,18.90
2023-01-07T04:07:33.879Z,17.98
2023-01-07T04:09:35.846Z,16.95
2023-01-07T04:11:37.755Z,16.08
2023-01-07T04:13:40.621Z,17.55
2023-01-07T04:15:43.302Z,19.05
2023-01-07T04:17:45.337Z,15.70
2023-01-07T04:19:47.186Z,16.80
2023-01-07T04:21:55.412Z,17.92
2023-01-07T04:23:57.349Z,16.58
2023-01-07T04:25:59.237Z,18.98
2023-01-07T04:28:01.071Z,18.05
2023-01-07T04:30:03.096Z,16.40
2023-01-07T04:32:05.238Z,18.75
2023-01-07T04:34:10.243Z,16.63
2023-01-07T04:36:13.770Z,16.90
2023-01-07T04:38:15.674Z,15.07
2023-01-07T04:40:17.716Z,14.70
2023-01-07T04:42:19.553Z,15.27
2023-01-07T04:44:21.428Z,16.27
2023-01-07T04:46:24.660Z,14.52
2023-01-07T04:48:26.917Z,17.77
2023-01-07T04:50:28.756Z,15.88
2023-01-07T04:52:30.733Z,14.80
2023-01-07T04:54:32.566Z,15.50
2023-01-07T04:56:34.400Z,15.45
2023-01-07T04:58:36.316Z,14.75
2023-01-07T05:00:38.334Z,14.77
2023-01-07T05:02:40.180Z,14.57
2023-01-07T05:04:42.172Z,15.57
2023-01-07T05:06:44.114Z,13.32
2023-01-07T05:08:46.085Z,13.65
2023-01-07T05:10:51.119Z,14.60
2023-01-07T05:12:53.137Z,15.00
2023-01-07T05:14:54.997Z,15.40
2023-01-07T05:16:56.855Z,16.33
2023-01-07T05:18:58.777Z,14.98
2023-01-07T05:21:00.674Z,15.13
2023-01-07T05:23:02.588Z,12.27
2023-01-07T05:25:04.637Z,12.70
2023-01-07T05:27:06.794Z,11.75
2023-01-07T05:29:10.080Z,14.27
2023-01-07T05:31:11.957Z,13.52
2023-01-07T05:33:14.011Z,11.98
2023-01-07T05:35:15.977Z,11.88
2023-01-07T05:37:18.049Z,12.43
2023-01-07T05:39:19.861Z,13.15
2023-01-07T05:41:21.774Z,14.23
2023-01-07T05:43:24.051Z,15.68
2023-01-07T05:45:25.971Z,20.45
2023-01-07T05:47:27.865Z,29.60
2023-01-07T05:49:29.836Z,29.30
2023-01-07T05:51:31.681Z,28.20
2023-01-07T05:53:33.909Z,17.63
2023-01-07T05:55:38.727Z,15.82
2023-01-07T05:57:40.579Z,14.18
2023-01-07T05:59:43.012Z,14.38
2023-01-07T06:01:44.861Z,14.52
2023-01-07T06:03:46.855Z,15.73
2023-01-07T06:05:49.395Z,16.33
2023-01-07T06:07:51.238Z,15.95
2023-01-07T06:09:53.119Z,16.17
2023-01-07T06:11:54.964Z,15.75
2023-01-07T06:13:56.782Z,14.27
2023-01-07T06:16:07.406Z,15.90
2023-01-07T06:18:09.298Z,14.25
2023-01-07T06:20:11.792Z,13.02
2023-01-07T06:22:14.806Z,11.82
2023-01-07T06:24:16.681Z,11.82
2023-01-07T06:26:18.544Z,12.88
2023-01-07T06:28:20.689Z,11.70
2023-01-07T06:30:22.551Z,13.48
2023-01-07T06:32:24.639Z,14.77
2023-01-07T06:34:26.561Z,16.85
2023-01-07T06:36:28.490Z,15.68
2023-01-07T06:38:30.953Z,16.88
2023-01-07T06:40:33.197Z,16.63
2023-01-07T06:42:35.369Z,17.88
2023-01-07T06:44:37.170Z,15.35
2023-01-07T06:46:39.033Z,16.02
2023-01-07T06:48:40.960Z,15.48
2023-01-07T06:50:43.906Z,15.20
2023-01-07T06:52:45.853Z,13.93
2023-01-07T06:54:48.616Z,13.05
2023-01-07T06:56:50.616Z,11.32
2023-01-07T06:58:52.540Z,12.98
2023-01-07T07:00:54.401Z,12.82
2023-01-07T07:02:58.739Z,13.55
2023-01-07T07:05:00.691Z,10.50
2023-01-07T07:07:02.528Z,11.60
2023-01-07T07:09:04.401Z,12.65
2023-01-07T07:11:06.321Z,11.95
2023-01-07T07:13:08.615Z,13.02
2023-01-07T07:15:10.927Z,12.32
2023-01-07T07:17:12.786Z,11.82
2023-01-07T07:19:14.620Z,12.32
2023-01-07T07:21:16.507Z,13.65
2023-01-07T07:23:18.491Z,10.60
2023-01-07T07:25:20.588Z,10.90
2023-01-07T07:27:22.443Z,13.80
2023-01-07T07:29:24.320Z,14.18
2023-01-07T07:31:26.223Z,14.27
2023-01-07T07:33:28.174Z,12.30
2023-01-07T07:35:30.937Z,13.15
2023-01-07T07:37:32.845Z,14.52
2023-01-07T07:39:34.770Z,12.50
2023-01-07T07:41:36.590Z,13.32
2023-01-07T07:43:38.587Z,10.63
2023-01-07T07:45:43.861Z,11.90
2023-01-07T07:47:46.556Z,10.35
2023-01-07T07:49:48.468Z,12.93
2023-01-07T07:51:50.381Z,11.85
2023-01-07T07:53:52.299Z,10.95
2023-01-07T07:55:54.272Z,11.77
2023-01-07T07:57:58.569Z,13.35
2023-01-07T08:00:00.474Z,13.70
2023-01-07T08:02:02.443Z,12.43
2023-01-07T08:04:04.399Z,13.52
2023-01-07T08:06:06.838Z,13.75
2023-01-07T08:08:10.272Z,11.52
2023-01-07T08:10:12.307Z,13.82
2023-01-07T08:12:16.752Z,11.70
2023-01-07T08:14:24.223Z,12.38
2023-01-07T08:16:28.855Z,13.68
2023-01-07T08:21:28.388Z,12.07
2023-01-07T08:23:31.563Z,11.98
2023-01-07T08:25:35.151Z,11.63
2023-01-07T08:27:39.140Z,10.68
2023-01-07T08:29:41.113Z,12.18
2023-01-07T08:31:43.205Z,10.23
2023-01-07T08:33:45.144Z,13.25
2023-01-07T08:35:47.187Z,12.77
2023-01-07T08:37:49.464Z,12.35
2023-01-07T08:39:51.293Z,11.98
2023-01-07T08:41:58.610Z,12.43
2023-01-07T08:44:01.551Z,12.35
2023-01-07T08:46:03.542Z,12.95
2023-01-07T08:48:06.084Z,12.90
2023-01-07T08:50:09.414Z,11.75
2023-01-07T08:52:14.309Z,10.18
2023-01-07T08:54:20.043Z,12.65
2023-01-07T08:56:23.110Z,12.40
2023-01-07T08:58:27.505Z,11.98
2023-01-07T09:00:29.489Z,12.50
2023-01-07T09:02:31.421Z,13.60
2023-01-07T09:04:36.052Z,10.88
2023-01-07T09:06:38.037Z,13.32
2023-01-07T09:08:40.746Z,12.80
2023-01-07T09:10:43.868Z,11.90
2023-01-07T09:12:46.193Z,11.40
2023-01-07T09:14:48.287Z,13.55
2023-01-07T09:16:50.165Z,10.90
2023-01-07T09:18:52.116Z,12.38
2023-01-07T09:20:54.155Z,11.18
2023-01-07T09:22:56.091Z,11.23
2023-01-07T09:24:57.953Z,11.18
2023-01-07T09:26:59.882Z,11.23
2023-01-07T09:29:01.797Z,11.48
2023-01-07T09:31:04.527Z,12.07
2023-01-07T09:33:06.613Z,11.85
2023-01-07T09:35:08.981Z,14.43
2023-01-07T09:37:10.872Z,15.85
2023-01-07T09:39:13.292Z,10.75
2023-01-07T09:41:44.654Z,13.27
2023-01-07T09:43:59.367Z,12.68
2023-01-07T09:46:09.009Z,13.85
2023-01-07T09:48:27.068Z,12.50
2023-01-07T09:50:55.258Z,13.45
2023-01-07T09:53:03.701Z,12.23
2023-01-07T09:55:13.975Z,14.43
2023-01-07T09:57:18.127Z,13.70
2023-01-07T09:59:20.311Z,15.73
2023-01-07T10:02:00.036Z,15.50
2023-01-07T10:04:30.174Z,14.32
2023-01-07T10:06:58.499Z,16.58
2023-01-07T10:09:08.295Z,16.23
2023-01-07T10:11:49.922Z,16.63
2023-01-07T10:13:57.501Z,16.33
2023-01-07T10:16:10.626Z,16.00
2023-01-07T10:18:22.502Z,16.60
2023-01-07T10:20:50.451Z,16.20
2023-01-07T10:23:03.660Z,16.02
2023-01-07T10:25:16.265Z,14.70
2023-01-07T10:27:29.936Z,15.30
2023-01-07T10:29:37.775Z,16.27
2023-01-07T10:31:40.463Z,13.50
2023-01-07T10:33:44.105Z,14.07
2023-01-07T10:35:49.321Z,14.93
2023-01-07T10:37:52.180Z,16.63
2023-01-07T10:40:13.030Z,15.90
2023-01-07T10:42:30.037Z,14.97
2023-01-07T10:44:46.685Z,15.10
2023-01-07T10:47:19.248Z,16.50
2023-01-07T10:49:39.808Z,17.23
2023-01-07T10:52:27.100Z,19.02
2023-01-07T10:55:07.505Z,18.42
2023-01-07T10:57:24.009Z,17.20
2023-01-07T10:59:26.162Z,17.92
2023-01-07T11:01:37.568Z,18.92
2023-01-07T11:03:40.559Z,17.10
2023-01-07T11:05:42.801Z,16.02
2023-01-07T11:07:48.568Z,15.95
2023-01-07T11:09:53.079Z,16.02
2023-01-07T11:11:58.159Z,15.73
2023-01-07T11:14:07.305Z,15.75
2023-01-07T11:16:23.806Z,16.65
2023-01-07T11:18:39.689Z,17.48
2023-01-07T11:20:53.435Z,15.82
2023-01-07T11:22:55.296Z,15.68
2023-01-07T11:24:59.567Z,17.23
2023-01-07T11:27:16.618Z,13.95
2023-01-07T11:29:28.576Z,13.02
2023-01-07T11:32:04.179Z,14.63
2023-01-07T11:34:06.607Z,14.02
2023-01-07T11:36:09.133Z,14.07
2023-01-07T11:38:31.962Z,13.07
2023-01-07T11:40:33.975Z,13.05
2023-01-07T11:42:57.655Z,12.20
2023-01-07T11:45:23.576Z,12.50
2023-01-07T11:47:25.545Z,14.35
2023-01-07T11:49:30.346Z,14.70
2023-01-07T11:51:41.643Z,15.60
2023-01-07T11:53:53.302Z,14.52
2023-01-07T11:58:28.129Z,12.05
2023-01-07T12:00:22.180Z,13.90
2023-01-07T12:02:27.406Z,15.88
2023-01-07T12:04:37.503Z,16.70
2023-01-07T12:06:42.163Z,12.95
2023-01-07T12:08:56.356Z,11.50
2023-01-07T12:11:09.284Z,12.20
2023-01-07T12:13:23.594Z,13.38
2023-01-07T12:15:37.699Z,12.73
2023-01-07T12:17:53.294Z,13.95
2023-01-07T12:20:10.402Z,12.40
2023-01-07T12:22:21.111Z,11.73
2023-01-07T12:24:50.241Z,13.33
2023-01-07T12:27:15.576Z,12.40
2023-01-07T12:29:39.464Z,10.60
2023-01-07T12:32:07.863Z,12.52
2023-01-07T12:34:19.483Z,11.98
2023-01-07T12:38:50.660Z,14.02
2023-01-07T12:43:15.506Z,18.55
2023-01-07T12:45:35.006Z,18.55
2023-01-07T12:47:52.841Z,21.33
2023-01-07T12:50:24.661Z,20.25
2023-01-07T12:52:51.193Z,20.27
2023-01-07T12:54:58.872Z,18.50
2023-01-07T12:57:10.484Z,17.27
2023-01-07T13:02:04.600Z,17.77
2023-01-07T13:04:26.849Z,18.20
2023-01-07T13:08:55.791Z,18.45
2023-01-07T13:11:20.472Z,20.17
2023-01-07T13:13:34.142Z,20.58
2023-01-07T13:15:39.745Z,21.80
2023-01-07T13:17:43.570Z,17.52
2023-01-07T13:19:45.713Z,21.17
2023-01-07T13:21:50.669Z,18.23
2023-01-07T13:24:14.768Z,17.48
2023-01-07T13:26:45.602Z,14.20
2023-01-07T13:28:55.960Z,12.10
2023-01-07T13:31:19.920Z,11.20
2023-01-07T13:33:32.517Z,10.73
2023-01-07T13:36:04.386Z,12.73
2023-01-07T13:40:26.079Z,11.50
2023-01-07T13:42:47.155Z,11.80
2023-01-07T13:45:03.145Z,12.90
2023-01-07T13:47:08.369Z,12.70
2023-01-07T13:49:32.357Z,14.20
2023-01-07T13:51:38.342Z,13.57
2023-01-07T13:53:42.502Z,13.65
2023-01-07T13:55:50.243Z,14.32
2023-01-07T13:57:52.445Z,14.88
2023-01-07T13:59:56.744Z,16.20
2023-01-07T14:02:18.724Z,18.25
2023-01-07T14:04:34.605Z,28.58
2023-01-07T14:06:42.104Z,28.88
2023-01-07T14:08:47.476Z,18.67
2023-01-07T14:10:54.536Z,16.63
2023-01-07T14:13:35.965Z,14.07
2023-01-07T14:15:43.921Z,15.00
2023-01-07T14:18:01.717Z,15.15
2023-01-07T14:20:32.765Z,16.90
2023-01-07T14:23:12.318Z,14.73
2023-01-07T14:25:50.217Z,15.07
2023-01-07T14:28:25.397Z,16.17
2023-01-07T14:30:43.172Z,14.18
2023-01-07T14:32:45.207Z,12.27
2023-01-07T14:34:59.083Z,13.18
2023-01-07T14:37:05.245Z,14.32
2023-01-07T14:39:35.159Z,14.38
2023-01-07T14:42:15.230Z,14.98
2023-01-07T14:44:27.374Z,13.90
2023-01-07T14:46:49.247Z,15.93
2023-01-07T14:49:03.245Z,17.58
2023-01-07T14:51:34.853Z,15.10
2023-01-07T14:54:12.492Z,15.10
2023-01-07T14:56:31.867Z,17.10
2023-01-07T14:58:40.913Z,16.77
2023-01-07T15:01:05.520Z,16.42
2023-01-07T15:03:24.908Z,23.80
2023-01-07T15:05:55.464Z,19.55
2023-01-07T15:08:20.924Z,23.58
2023-01-07T15:10:49.936Z,32.90
2023-01-07T15:13:15.334Z,26.88
2023-01-07T15:15:41.228Z,24.77
2023-01-07T15:17:43.513Z,29.05
2023-01-07T15:19:45.955Z,29.05
2023-01-07T15:22:23.633Z,19.80
2023-01-07T15:24:55.043Z,19.65
2023-01-07T15:27:02.469Z,17.10
2023-01-07T15:29:20.698Z,17.90
2023-01-07T15:31:47.169Z,18.02
2023-01-07T15:33:52.294Z,16.95
2023-01-07T15:35:56.271Z,16.98
2023-01-07T15:37:59.488Z,16.65
2023-01-07T15:40:01.844Z,15.73
2023-01-07T15:42:04.139Z,15.85
2023-01-07T15:44:14.805Z,17.23
2023-01-07T15:46:17.190Z,18.25
2023-01-07T15:48:19.481Z,17.17
2023-01-07T15:50:24.748Z,20.88
2023-01-07T15:52:28.015Z,23.52
2023-01-07T15:54:38.503Z,26.35
2023-01-07T15:56:40.560Z,29.65
2023-01-07T15:58:50.409Z,29.23
2023-01-07T16:00:56.750Z,30.45
2023-01-07T16:03:03.665Z,36.80
2023-01-07T16:05:06.625Z,28.98
2023-01-07T16:07:31.504Z,25.77
2023-01-07T16:09:34.426Z,28.33
2023-01-07T16:11:36.481Z,25.17
2023-01-07T16:13:38.426Z,25.40
2023-01-07T16:15:41.561Z,24.55
2023-01-07T16:17:53.262Z,25.73
2023-01-07T16:20:25.120Z,29.58
2023-01-07T16:24:33.738Z,35.97
2023-01-07T16:26:41.352Z,33.03
2023-01-07T16:29:00.983Z,29.05
2023-01-07T16:31:14.933Z,31.60
2023-01-07T16:33:23.261Z,26.80
2023-01-07T16:35:33.222Z,27.65
2023-01-07T16:37:40.494Z,26.95
2023-01-07T16:39:48.453Z,22.75
2023-01-07T16:41:53.944Z,20.42
2023-01-07T16:44:00.814Z,21.25
2023-01-07T16:46:29.857Z,22.92
2023-01-07T16:48:32.047Z,22.80
2023-01-07T16:50:39.994Z,25.60
2023-01-07T16:52:57.530Z,26.40
2023-01-07T16:55:01.602Z,23.73
2023-01-07T16:57:16.249Z,19.75
2023-01-07T16:59:19.670Z,20.67
2023-01-07T17:01:31.193Z,21.63
2023-01-07T17:06:07.541Z,24.50
2023-01-07T17:08:18.947Z,21.48
2023-01-07T17:10:26.840Z,22.17
2023-01-07T17:12:36.453Z,21.48
2023-01-07T17:14:41.230Z,19.85
2023-01-07T17:16:43.643Z,21.70
2023-01-07T17:18:45.754Z,24.17
2023-01-07T17:20:52.742Z,34.85
2023-01-07T17:22:54.773Z,53.03
2023-01-07T17:25:21.728Z,54.30
2023-01-07T17:27:29.952Z,37.85
2023-01-07T17:29:42.730Z,31.92
2023-01-07T17:31:48.213Z,36.90
2023-01-07T17:33:51.780Z,35.03
2023-01-07T17:35:57.769Z,29.30
2023-01-07T17:37:59.777Z,30.20
2023-01-07T17:40:01.794Z,28.80
2023-01-07T17:42:24.386Z,24.92
2023-01-07T17:44:26.676Z,22.52
2023-01-07T17:46:30.327Z,26.05
2023-01-07T17:48:33.313Z,25.63
2023-01-07T17:50:37.289Z,26.00
2023-01-07T17:52:43.067Z,23.45
2023-01-07T17:54:47.134Z,25.83
2023-01-07T17:56:52.279Z,27.38
2023-01-07T17:58:56.143Z,27.65
2023-01-07T18:01:00.906Z,24.35
2023-01-07T18:03:03.091Z,22.13
2023-01-07T18:05:05.722Z,26.08
2023-01-07T18:07:12.967Z,33.03
2023-01-07T18:09:14.914Z,33.00
2023-01-07T18:11:43.240Z,32.10
2023-01-07T18:13:45.285Z,25.65
2023-01-07T18:15:50.193Z,25.83
2023-01-07T18:17:52.519Z,30.02
2023-01-07T18:19:55.129Z,35.20
2023-01-07T18:21:57.113Z,30.92
2023-01-07T18:23:59.215Z,27.95
2023-01-07T18:26:01.165Z,25.40
2023-01-07T18:28:04.511Z,25.92
2023-01-07T18:30:07.005Z,21.65
2023-01-07T18:32:09.042Z,20.50
2023-01-07T18:34:13.312Z,20.63
2023-01-07T18:36:16.983Z,18.70
2023-01-07T18:38:19.217Z,19.88
2023-01-07T18:40:21.584Z,21.48
2023-01-07T18:42:23.593Z,21.45
2023-01-07T18:44:25.849Z,24.60
2023-01-07T18:46:28.152Z,23.88
2023-01-07T18:48:31.212Z,22.42
2023-01-07T18:50:33.722Z,21.13
2023-01-07T18:52:41.819Z,23.13
2023-01-07T18:54:46.372Z,29.95
2023-01-07T18:56:48.403Z,24.15
2023-01-07T18:58:54.511Z,25.08
2023-01-07T19:01:02.989Z,22.77
2023-01-07T19:03:07.383Z,25.58
2023-01-07T19:05:09.544Z,23.88
2023-01-07T19:07:11.583Z,24.80
2023-01-07T19:09:18.211Z,25.02
2023-01-07T19:11:20.403Z,25.60
2023-01-07T19:13:22.561Z,24.42
2023-01-07T19:15:25.565Z,26.83
2023-01-07T19:17:28.415Z,26.02
2023-01-07T19:19:37.067Z,28.90
2023-01-07T19:21:47.459Z,25.90
2023-01-07T19:23:49.514Z,25.60
2023-01-07T19:26:03.652Z,27.83
2023-01-07T19:28:05.712Z,28.05
2023-01-07T19:30:08.327Z,29.65
2023-01-07T19:32:10.330Z,27.20
2023-01-07T19:34:13.880Z,28.30
2023-01-07T19:36:17.706Z,27.67
2023-01-07T19:38:20.522Z,26.95
2023-01-07T19:40:23.364Z,30.85
2023-01-07T19:42:25.349Z,29.48
2023-01-07T19:44:27.299Z,32.42
2023-01-07T19:46:29.460Z,29.08
2023-01-07T19:48:31.965Z,30.00
2023-01-07T19:50:34.009Z,30.00
2023-01-07T19:52:35.923Z,31.13
2023-01-07T19:54:37.898Z,29.35
2023-01-07T19:56:40.824Z,30.42
2023-01-07T19:58:42.858Z,30.95
2023-01-07T20:00:45.633Z,30.13
2023-01-07T20:02:47.711Z,34.47
2023-01-07T20:04:49.707Z,33.55
2023-01-07T20:06:51.700Z,34.28
2023-01-07T20:08:55.435Z,30.65
2023-01-07T20:10:59.281Z,30.92
2023-01-07T20:13:01.342Z,31.85
2023-01-07T20:15:06.426Z,33.30
2023-01-07T20:17:10.180Z,32.67
2023-01-07T20:19:14.014Z,30.73
2023-01-07T20:21:18.834Z,30.42
2023-01-07T20:23:26.493Z,35.38
2023-01-07T20:25:28.587Z,31.67
2023-01-07T20:27:30.466Z,30.15
2023-01-07T20:29:32.391Z,34.53
2023-01-07T20:31:34.342Z,32.03
2023-01-07T20:33:36.299Z,33.47
2023-01-07T20:35:39.921Z,31.45
2023-01-07T20:37:42.014Z,35.78
2023-01-07T20:39:44.053Z,34.67
2023-01-07T20:41:45.983Z,31.35
2023-01-07T20:43:53.281Z,29.42
2023-01-07T20:45:59.119Z,28.17
2023-01-07T20:48:04.352Z,28.95
2023-01-07T20:50:10.273Z,29.10
2023-01-07T20:52:12.341Z,29.23
2023-01-07T20:54:15.391Z,30.05
2023-01-07T20:56:19.831Z,26.52
2023-01-07T20:58:21.899Z,29.40
2023-01-07T21:00:24.149Z,31.13
2023-01-07T21:02:26.215Z,36.63
2023-01-07T21:04:30.227Z,31.75
2023-01-07T21:06:32.336Z,28.02
2023-01-07T21:08:35.570Z,29.45
2023-01-07T21:10:38.177Z,28.25
2023-01-07T21:12:40.212Z,28.67
2023-01-07T21:14:42.107Z,26.55
2023-01-07T21:16:44.652Z,28.33
2023-01-07T21:18:47.707Z,25.42
2023-01-07T21:20:49.654Z,27.02
2023-01-07T21:22:51.644Z,25.83
2023-01-07T21:24:54.530Z,26.88
2023-01-07T21:26:56.483Z,25.98
2023-01-07T21:28:59.260Z,29.90
2023-01-07T21:31:09.056Z,25.15
2023-01-07T21:33:11.218Z,26.33
2023-01-07T21:35:13.998Z,24.80
2023-01-07T21:37:15.878Z,26.67
2023-01-07T21:39:20.678Z,28.58
2023-01-07T21:41:23.873Z,29.90
2023-01-07T21:43:25.920Z,30.67
2023-01-07T21:45:30.235Z,30.77
2023-01-07T21:47:32.701Z,33.97
2023-01-07T21:49:34.612Z,29.73
2023-01-07T21:51:38.806Z,29.42
2023-01-07T21:53:44.582Z,32.38
2023-01-07T21:55:49.444Z,28.80
2023-01-07T21:57:51.349Z,28.23
2023-01-07T22:00:26.998Z,27.52
2023-01-07T22:02:48.210Z,29.20
2023-01-07T22:04:53.886Z,30.13
2023-01-07T22:07:01.256Z,31.75
2023-01-07T22:09:36.482Z,29.33
2023-01-07T22:14:03.906Z,33.30
2023-01-07T22:16:19.020Z,37.67
2023-01-07T22:18:37.657Z,35.30
2023-01-07T22:21:06.311Z,28.50
2023-01-07T22:23:17.182Z,30.88
2023-01-07T22:25:26.774Z,31.48
2023-01-07T22:27:36.824Z,30.58
2023-01-07T22:29:49.380Z,29.23
2023-01-07T22:32:00.396Z,29.17
2023-01-07T22:34:05.429Z,32.58
2023-01-07T22:36:17.583Z,32.78
2023-01-07T22:38:38.417Z,29.55
2023-01-07T22:41:00.046Z,26.20
2023-01-07T22:43:08.214Z,29.90
2023-01-07T22:45:30.982Z,29.67
2023-01-07T22:47:40.637Z,31.35
2023-01-07T22:49:44.955Z,30.40
2023-01-07T22:51:52.936Z,29.45
2023-01-07T22:53:56.943Z,27.00
2023-01-07T22:56:01.336Z,27.70
2023-01-07T22:58:10.915Z,31.58
2023-01-07T23:00:45.025Z,29.63
2023-01-07T23:03:07.201Z,27.95
2023-01-07T23:05:25.514Z,27.10
2023-01-07T23:07:38.312Z,28.67
2023-01-07T23:09:44.328Z,30.52
2023-01-07T23:11:49.275Z,30.67
2023-01-07T23:13:51.448Z,29.17
2023-01-07T23:16:07.867Z,31.92
2023-01-07T23:18:11.571Z,28.23
2023-01-07T23:20:13.497Z,29.88
2023-01-07T23:22:15.367Z,29.67
2023-01-07T23:24:17.709Z,29.20
2023-01-07T23:26:19.652Z,32.55
2023-01-07T23:28:21.576Z,29.25
2023-01-07T23:30:27.494Z,27.98
2023-01-07T23:32:31.746Z,26.65
2023-01-07T23:34:37.625Z,29.25
2023-01-07T23:36:53.364Z,30.67
2023-01-07T23:38:56.493Z,32.88
2023-01-07T23:41:28.305Z,30.05
2023-01-07T23:43:30.632Z,30.70
2023-01-07T23:45:32.865Z,29.75
2023-01-07T23:47:34.945Z,28.33
2023-01-07T23:50:10.745Z,31.52
2023-01-07T23:52:50.330Z,29.45
2023-01-07T23:55:01.199Z,30.15
2023-01-07T23:57:03.381Z,29.33
2023-01-07T23:59:06.770Z,27.83
